Time,TemperatureF,DewpointF,PressureIn,WindDirection,WindDirectionDegrees,WindSpeedMPH,WindSpeedGustMPH,Humidity,HourlyPrecipIn,Conditions,Clouds,dailyrainin,SoftwareType,DateUTC
2013-04-05 00:12:00,42.3,37.0,32.45,SSW,198,8.0,18.0,81,0.00,,,0.00,weatherlink.com 1.10,2013-04-05 06:12:00,
2013-04-05 00:42:00,41.4,37.0,32.45,SSW,199,14.0,22.0,85,0.00,,,0.00,weatherlink.com 1.10,2013-04-05 06:42:00,
2013-04-05 00:57:00,42.4,37.0,32.44,SSW,205,14.0,21.0,80,0.00,,,0.00,weatherlink.com 1.10,2013-04-05 06:57:00,
2013-04-05 01:12:00,42.4,37.0,32.44,SSW,196,19.0,22.0,80,0.00,,,0.00,weatherlink.com 1.10,2013-04-05 07:12:00,
2013-04-05 01:27:00,41.7,37.0,32.45,SSW,211,19.0,25.0,83,0.00,,,0.00,weatherlink.com 1.10,2013-04-05 07:27:00,
2013-04-05 01:42:00,40.4,37.0,32.45,SSW,194,20.0,22.0,88,0.00,,,0.00,weatherlink.com 1.10,2013-04-05 07:42:00,
2013-04-05 01:57:00,41.3,37.0,32.44,SSW,203,17.0,19.0,85,0.00,,,0.00,weatherlink.com 1.10,2013-04-05 07:57:00,
2013-04-05 02:12:00,41.9,37.0,32.45,SSW,195,14.0,21.0,83,0.00,,,0.00,weatherlink.com 1.10,2013-04-05 08:12:00,
2013-04-05 02:27:00,41.5,37.0,32.47,WNW,294,11.0,20.0,83,0.00,,,0.00,weatherlink.com 1.10,2013-04-05 08:27:00,
2013-04-05 02:42:00,39.1,36.0,32.48,NW,305,8.0,18.0,88,0.00,,,0.00,weatherlink.com 1.10,2013-04-05 08:42:00,
2013-04-05 02:57:00,38.8,35.0,32.48,WNW,288,22.0,24.0,85,0.00,,,0.00,weatherlink.com 1.10,2013-04-05 08:57:00,
2013-04-05 03:12:00,38.3,33.0,32.50,WNW,294,13.0,28.0,81,0.00,,,0.00,weatherlink.com 1.10,2013-04-05 09:12:00,
2013-04-05 03:27:00,37.2,33.0,32.50,WNW,286,24.0,24.0,85,0.00,,,0.00,weatherlink.com 1.10,2013-04-05 09:27:00,
2013-04-05 03:42:00,36.7,32.0,32.50,WNW,289,17.0,22.0,84,0.00,,,0.00,weatherlink.com 1.10,2013-04-05 09:42:00,
2013-04-05 03:57:00,36.5,32.0,32.50,WNW,295,15.0,16.0,84,0.00,,,0.00,weatherlink.com 1.10,2013-04-05 09:57:00,
2013-04-05 04:12:00,36.4,32.0,32.50,NW,306,10.0,15.0,84,0.00,,,0.00,weatherlink.com 1.10,2013-04-05 10:12:00,
2013-04-05 04:27:00,36.1,32.0,32.50,WNW,282,10.0,14.0,84,0.00,,,0.00,weatherlink.com 1.10,2013-04-05 10:27:00,
2013-04-05 04:42:00,36.5,31.0,32.50,WNW,283,10.0,15.0,80,0.00,,,0.00,weatherlink.com 1.10,2013-04-05 10:42:00,
2013-04-05 04:57:00,37.0,31.0,32.50,NW,305,12.0,17.0,78,0.00,,,0.00,weatherlink.com 1.10,2013-04-05 10:57:00,
2013-04-05 05:12:00,36.5,31.0,32.50,West,262,5.0,10.0,81,0.00,,,0.00,weatherlink.com 1.10,2013-04-05 11:12:00,
2013-04-05 05:27:00,36.2,31.0,32.50,WSW,240,4.0,6.0,82,0.00,,,0.00,weatherlink.com 1.10,2013-04-05 11:27:00,
2013-04-05 05:42:00,35.8,32.0,32.50,SSW,209,7.0,9.0,85,0.00,,,0.00,weatherlink.com 1.10,2013-04-05 11:42:00,
2013-04-05 05:57:00,35.7,32.0,32.50,SSE,157,6.0,12.0,86,0.00,,,0.00,weatherlink.com 1.10,2013-04-05 11:57:00,
2013-04-05 06:12:00,35.4,32.0,32.50,SSE,166,9.0,11.0,86,0.00,,,0.00,weatherlink.com 1.10,2013-04-05 12:12:00,
2013-04-05 06:27:00,35.6,32.0,32.50,SSE,150,14.0,14.0,86,0.00,,,0.00,weatherlink.com 1.10,2013-04-05 12:27:00,
2013-04-05 06:42:00,35.0,32.0,32.50,South,176,7.0,18.0,88,0.00,,,0.00,weatherlink.com 1.10,2013-04-05 12:42:00,
2013-04-05 06:58:00,35.1,32.0,32.50,SW,236,7.0,11.0,87,0.00,,,0.00,weatherlink.com 1.10,2013-04-05 12:58:00,
2013-04-05 07:12:00,34.6,32.0,32.50,SSE,153,8.0,11.0,89,0.00,,,0.00,weatherlink.com 1.10,2013-04-05 13:12:00,
2013-04-05 07:28:00,34.6,32.0,32.50,South,186,5.0,10.0,90,0.00,,,0.00,weatherlink.com 1.10,2013-04-05 13:28:00,
2013-04-05 07:43:00,34.6,32.0,32.50,SW,220,8.0,11.0,89,0.00,,,0.00,weatherlink.com 1.10,2013-04-05 13:43:00,
2013-04-05 07:58:00,34.6,32.0,32.50,South,182,8.0,12.0,89,0.00,,,0.00,weatherlink.com 1.10,2013-04-05 13:58:00,
2013-04-05 08:13:00,-999.0,-99.9,32.50,North,-999,-999.0,-999.0,-999,0.00,,,0.00,weatherlink.com 1.10,2013-04-05 14:13:00,
2013-04-05 08:28:00,-999.0,-99.9,32.50,North,-999,-999.0,-999.0,-999,0.00,,,0.00,weatherlink.com 1.10,2013-04-05 14:28:00,
2013-04-05 08:43:00,-999.0,-99.9,32.50,North,-999,-999.0,-999.0,-999,0.00,,,0.00,weatherlink.com 1.10,2013-04-05 14:43:00,
2013-04-05 08:58:00,-999.0,-99.9,32.50,North,-999,-999.0,-999.0,-999,0.00,,,0.00,weatherlink.com 1.10,2013-04-05 14:58:00,
2013-04-05 09:13:00,-999.0,-99.9,32.50,North,-999,-999.0,-999.0,-999,0.00,,,0.00,weatherlink.com 1.10,2013-04-05 15:13:00,
2013-04-05 09:28:00,-999.0,-99.9,32.50,North,-999,-999.0,-999.0,-999,0.00,,,0.00,weatherlink.com 1.10,2013-04-05 15:28:00,
2013-04-05 09:43:00,-999.0,-99.9,32.50,North,-999,-999.0,-999.0,-999,0.00,,,0.00,weatherlink.com 1.10,2013-04-05 15:43:00,
2013-04-05 09:58:00,-999.0,-99.9,32.50,North,-999,-999.0,-999.0,-999,0.00,,,0.00,weatherlink.com 1.10,2013-04-05 15:58:00,
2013-04-05 10:13:00,-999.0,-99.9,32.50,North,-999,-999.0,-999.0,-999,0.00,,,0.00,weatherlink.com 1.10,2013-04-05 16:13:00,
2013-04-05 10:28:00,-999.0,-99.9,32.50,North,-999,-999.0,-999.0,-999,0.00,,,0.00,weatherlink.com 1.10,2013-04-05 16:28:00,
2013-04-05 10:58:00,-999.0,-99.9,32.50,North,-999,-999.0,-999.0,-999,0.00,,,0.00,weatherlink.com 1.10,2013-04-05 16:58:00,
2013-04-05 11:29:00,-999.0,-99.9,32.50,North,-999,-999.0,-999.0,-999,0.00,,,0.00,weatherlink.com 1.10,2013-04-05 17:29:00,
2013-04-05 11:44:00,-999.0,-99.9,32.50,North,-999,-999.0,-999.0,-999,0.00,,,0.00,weatherlink.com 1.10,2013-04-05 17:44:00,
2013-04-05 11:59:00,-999.0,-99.9,32.50,North,-999,-999.0,-999.0,-999,0.00,,,0.00,weatherlink.com 1.10,2013-04-05 17:59:00,
2013-04-05 12:14:00,-999.0,-99.9,32.50,North,-999,-999.0,-999.0,-999,0.00,,,0.00,weatherlink.com 1.10,2013-04-05 18:14:00,
2013-04-05 12:59:00,41.3,34.0,32.50,SW,217,14.0,22.0,76,0.00,,,0.00,weatherlink.com 1.10,2013-04-05 18:59:00,
2013-04-05 13:14:00,40.1,32.0,32.50,SW,231,7.0,20.0,73,0.00,,,0.00,weatherlink.com 1.10,2013-04-05 19:14:00,
2013-04-05 13:29:00,40.0,32.0,32.50,SW,218,15.0,22.0,72,0.00,,,0.00,weatherlink.com 1.10,2013-04-05 19:29:00,
2013-04-05 13:44:00,41.7,31.0,32.50,West,279,6.0,18.0,65,0.00,,,0.00,weatherlink.com 1.10,2013-04-05 19:44:00,
2013-04-05 13:59:00,42.0,31.0,32.50,West,267,6.0,14.0,66,0.00,,,0.00,weatherlink.com 1.10,2013-04-05 19:59:00,
2013-04-05 14:14:00,42.3,31.0,32.50,WSW,254,10.0,16.0,64,0.00,,,0.00,weatherlink.com 1.10,2013-04-05 20:14:00,
2013-04-05 14:29:00,41.5,29.0,32.50,SSW,208,11.0,22.0,62,0.00,,,0.00,weatherlink.com 1.10,2013-04-05 20:29:00,
2013-04-05 14:44:00,42.2,30.0,32.50,SSW,213,20.0,22.0,63,0.00,,,0.00,weatherlink.com 1.10,2013-04-05 20:44:00,
2013-04-05 14:59:00,42.2,31.0,32.50,SW,227,15.0,21.0,66,0.00,,,0.00,weatherlink.com 1.10,2013-04-05 20:59:00,
2013-04-05 15:29:00,39.2,31.0,32.50,West,279,7.0,17.0,72,0.00,,,0.00,weatherlink.com 1.10,2013-04-05 21:29:00,
2013-04-05 15:44:00,39.3,31.0,32.50,West,267,3.0,15.0,72,0.00,,,0.00,weatherlink.com 1.10,2013-04-05 21:44:00,
2013-04-05 15:59:00,39.9,30.0,32.50,West,281,10.0,15.0,69,0.00,,,0.00,weatherlink.com 1.10,2013-04-05 21:59:00,
2013-04-05 16:14:00,40.0,29.0,32.50,SW,219,15.0,17.0,66,0.00,,,0.00,weatherlink.com 1.10,2013-04-05 22:14:00,
2013-04-05 16:29:00,40.8,29.0,32.50,WNW,295,6.0,15.0,64,0.00,,,0.00,weatherlink.com 1.10,2013-04-05 22:29:00,
2013-04-05 16:44:00,41.1,30.0,32.50,WNW,284,5.0,13.0,66,0.00,,,0.00,weatherlink.com 1.10,2013-04-05 22:44:00,
2013-04-05 16:59:00,41.8,31.0,32.50,WSW,248,7.0,14.0,65,0.00,,,0.00,weatherlink.com 1.10,2013-04-05 22:59:00,
2013-04-05 17:14:00,40.8,32.0,32.50,WNW,284,9.0,14.0,70,0.00,,,0.00,weatherlink.com 1.10,2013-04-05 23:14:00,
2013-04-05 17:29:00,40.5,30.0,32.50,West,277,5.0,17.0,66,0.00,,,0.00,weatherlink.com 1.10,2013-04-05 23:29:00,
2013-04-05 17:44:00,40.1,31.0,32.50,WNW,285,13.0,19.0,69,0.00,,,0.00,weatherlink.com 1.10,2013-04-05 23:44:00,
2013-04-05 17:59:00,40.1,30.0,32.50,WNW,298,13.0,19.0,68,0.00,,,0.00,weatherlink.com 1.10,2013-04-05 23:59:00,
2013-04-05 18:14:00,39.9,31.0,32.50,NW,312,5.0,21.0,71,0.00,,,0.00,weatherlink.com 1.10,2013-04-06 00:14:00,
2013-04-05 18:29:00,39.1,31.0,32.50,WNW,290,5.0,19.0,73,0.00,,,0.00,weatherlink.com 1.10,2013-04-06 00:29:00,
2013-04-05 18:44:00,38.2,31.0,32.50,WNW,286,11.0,18.0,75,0.00,,,0.00,weatherlink.com 1.10,2013-04-06 00:44:00,
2013-04-05 18:59:00,38.0,31.0,32.50,NNW,333,5.0,18.0,76,0.00,,,0.00,weatherlink.com 1.10,2013-04-06 00:59:00,
2013-04-05 19:14:00,37.8,31.0,32.50,NW,311,9.0,17.0,76,0.00,,,0.00,weatherlink.com 1.10,2013-04-06 01:14:00,
2013-04-05 19:29:00,38.3,31.0,32.50,West,281,11.0,16.0,75,0.00,,,0.00,weatherlink.com 1.10,2013-04-06 01:29:00,
2013-04-05 19:44:00,37.6,30.0,32.50,West,271,6.0,16.0,73,0.00,,,0.00,weatherlink.com 1.10,2013-04-06 01:44:00,
2013-04-05 19:59:00,37.3,30.0,32.50,WNW,296,2.0,11.0,74,0.00,,,0.00,weatherlink.com 1.10,2013-04-06 01:59:00,
2013-04-05 20:14:00,36.7,30.0,32.50,WNW,287,5.0,12.0,78,0.00,,,0.00,weatherlink.com 1.10,2013-04-06 02:14:00,
2013-04-05 20:29:00,36.6,30.0,32.50,NW,304,9.0,13.0,77,0.00,,,0.00,weatherlink.com 1.10,2013-04-06 02:29:00,
2013-04-05 20:44:00,36.4,31.0,32.50,WNW,295,7.0,10.0,80,0.00,,,0.00,weatherlink.com 1.10,2013-04-06 02:44:00,
2013-04-05 20:59:00,-999.0,-99.9,32.50,North,-999,-999.0,-999.0,-999,0.00,,,0.00,weatherlink.com 1.10,2013-04-06 02:59:00,
2013-04-05 21:14:00,36.2,31.0,32.50,WSW,254,7.0,15.0,81,0.00,,,0.00,weatherlink.com 1.10,2013-04-06 03:14:00,
2013-04-05 21:29:00,35.7,32.0,32.50,WNW,284,7.0,11.0,85,0.00,,,0.00,weatherlink.com 1.10,2013-04-06 03:29:00,
2013-04-05 21:45:00,35.0,32.0,32.50,SW,233,9.0,12.0,87,0.00,,,0.00,weatherlink.com 1.10,2013-04-06 03:45:00,
2013-04-05 22:00:00,35.1,32.0,32.50,SW,228,12.0,15.0,87,0.00,,,0.00,weatherlink.com 1.10,2013-04-06 04:00:00,
2013-04-05 22:15:00,35.0,32.0,32.50,SSW,193,11.0,13.0,87,0.00,,,0.00,weatherlink.com 1.10,2013-04-06 04:15:00,
2013-04-05 22:30:00,36.0,31.0,32.50,SSW,209,10.0,15.0,82,0.00,,,0.00,weatherlink.com 1.10,2013-04-06 04:30:00,
2013-04-05 22:46:00,36.0,31.0,32.50,SSW,202,9.0,15.0,82,0.00,,,0.00,weatherlink.com 1.10,2013-04-06 04:46:00,
2013-04-05 23:00:00,35.7,32.0,32.50,South,178,9.0,14.0,85,0.00,,,0.00,weatherlink.com 1.10,2013-04-06 05:00:00,
2013-04-05 23:15:00,35.4,33.0,32.50,SSE,164,7.0,12.0,91,0.00,,,0.00,weatherlink.com 1.10,2013-04-06 05:15:00,
2013-04-05 23:30:00,35.0,33.0,32.50,SSE,153,12.0,13.0,92,0.00,,,0.00,weatherlink.com 1.10,2013-04-06 05:30:00,
2013-04-05 23:45:00,34.9,33.0,32.50,South,178,10.0,17.0,91,0.00,,,0.00,weatherlink.com 1.10,2013-04-06 05:45:00,